sensor_id;sensor_type;location;lat;lon;timestamp;pressure;altitude;pressure_sealevel;temperature;humidity
7586;BME280;12459;42.646;23.292;2022-09-09T00:01:56;93853.13;;;17.37;93.93
7586;BME280;12459;42.646;23.292;2022-09-09T00:17:03;93853.56;;;17.01;96.04
7586;BME280;12459;42.646;23.292;2022-09-09T00:32:15;93828.72;;;17.15;92.88
7586;BME280;12459;42.646;23.292;2022-09-09T01:47:42;93823.94;;;16.85;97.31
7586;BME280;12459;42.646;23.292;2022-09-09T02:02:48;93824.28;;;16.49;98.67
7586;BME280;12459;42.646;23.292;2022-09-09T02:17:54;93805.66;;;16.51;98.21
7586;BME280;12459;42.646;23.292;2022-09-09T02:32:58;93808.44;;;17.20;93.48
7586;BME280;12459;42.646;23.292;2022-09-09T02:48:11;93828.03;;;16.64;95.01
7586;BME280;12459;42.646;23.292;2022-09-09T03:03:15;93825.16;;;16.33;97.17
7586;BME280;12459;42.646;23.292;2022-09-09T03:18:17;93828.59;;;16.34;97.41
7586;BME280;12459;42.646;23.292;2022-09-09T03:33:19;93824.81;;;16.31;96.73
7586;BME280;12459;42.646;23.292;2022-09-09T03:48:20;93809.56;;;16.12;98.97
7586;BME280;12459;42.646;23.292;2022-09-09T04:03:22;93828.38;;;16.03;99.43
7586;BME280;12459;42.646;23.292;2022-09-09T04:18:28;93827.22;;;16.80;96.58
7586;BME280;12459;42.646;23.292;2022-09-09T04:33:30;93836.69;;;18.90;86.85
7586;BME280;12459;42.646;23.292;2022-09-09T04:48:37;93849.03;;;17.67;90.98
7586;BME280;12459;42.646;23.292;2022-09-09T05:03:38;93822.06;;;21.53;76.49
7586;BME280;12459;42.646;23.292;2022-09-09T05:18:40;93828.78;;;22.55;71.04
7586;BME280;12459;42.646;23.292;2022-09-09T05:33:43;93812.22;;;22.79;68.66
7586;BME280;12459;42.646;23.292;2022-09-09T05:48:47;93816.47;;;24.02;62.34
7586;BME280;12459;42.646;23.292;2022-09-09T06:03:50;93820.84;;;24.46;58.86
7586;BME280;12459;42.646;23.292;2022-09-09T06:18:52;93848.03;;;22.17;62.17
7586;BME280;12459;42.646;23.292;2022-09-09T06:33:54;93831.00;;;25.57;54.71
7586;BME280;12459;42.646;23.292;2022-09-09T06:48:56;93828.41;;;24.57;57.06
7586;BME280;12459;42.646;23.292;2022-09-09T07:03:58;93845.19;;;26.93;51.35
7586;BME280;12459;42.646;23.292;2022-09-09T07:19:00;93844.16;;;26.12;50.41
7586;BME280;12459;42.646;23.292;2022-09-09T07:34:03;93826.63;;;25.98;52.81
7586;BME280;12459;42.646;23.292;2022-09-09T07:49:05;93844.47;;;26.42;51.19
7586;BME280;12459;42.646;23.292;2022-09-09T08:04:08;93838.69;;;26.85;49.05
7586;BME280;12459;42.646;23.292;2022-09-09T08:19:10;93842.88;;;27.42;48.79
7586;BME280;12459;42.646;23.292;2022-09-09T08:34:11;93825.97;;;26.48;50.54
7586;BME280;12459;42.646;23.292;2022-09-09T08:49:17;93826.94;;;26.17;49.37
7586;BME280;12459;42.646;23.292;2022-09-09T09:04:26;93822.69;;;26.16;48.81
7586;BME280;12459;42.646;23.292;2022-09-09T09:19:32;93825.47;;;26.38;48.28
7586;BME280;12459;42.646;23.292;2022-09-09T09:34:34;93822.44;;;27.03;47.04
7586;BME280;12459;42.646;23.292;2022-09-09T09:49:36;93807.66;;;26.95;46.05
7586;BME280;12459;42.646;23.292;2022-09-09T10:04:38;93793.53;;;27.44;46.49
7586;BME280;12459;42.646;23.292;2022-09-09T10:19:41;93814.38;;;25.88;47.96
7586;BME280;12459;42.646;23.292;2022-09-09T10:34:56;93814.72;;;26.46;48.65
7586;BME280;12459;42.646;23.292;2022-09-09T10:50:09;93819.47;;;26.40;47.39
7586;BME280;12459;42.646;23.292;2022-09-09T11:05:18;93818.16;;;26.97;48.38
7586;BME280;12459;42.646;23.292;2022-09-09T11:20:21;93811.19;;;26.18;49.64
7586;BME280;12459;42.646;23.292;2022-09-09T11:50:42;93723.66;;;25.43;54.32
7586;BME280;12459;42.646;23.292;2022-09-09T12:05:44;93738.59;;;27.21;49.17
7586;BME280;12459;42.646;23.292;2022-09-09T12:36:07;93699.09;;;27.13;50.00
7586;BME280;12459;42.646;23.292;2022-09-09T12:51:28;93695.13;;;27.50;50.47
7586;BME280;12459;42.646;23.292;2022-09-09T13:06:31;93668.63;;;27.00;51.78
7586;BME280;12459;42.646;23.292;2022-09-09T13:21:34;93670.22;;;26.67;52.10
7586;BME280;12459;42.646;23.292;2022-09-09T13:36:36;93649.72;;;26.68;52.15
7586;BME280;12459;42.646;23.292;2022-09-09T13:51:42;93631.19;;;26.75;52.61
7586;BME280;12459;42.646;23.292;2022-09-09T14:06:43;93632.34;;;27.07;52.65
7586;BME280;12459;42.646;23.292;2022-09-09T14:21:45;93626.63;;;26.88;51.40
7586;BME280;12459;42.646;23.292;2022-09-09T14:36:46;93616.28;;;26.53;53.93
7586;BME280;12459;42.646;23.292;2022-09-09T14:51:48;93612.06;;;26.41;53.83
7586;BME280;12459;42.646;23.292;2022-09-09T15:06:50;93636.81;;;26.41;52.89
7586;BME280;12459;42.646;23.292;2022-09-09T15:21:53;93639.56;;;25.35;58.82
7586;BME280;12459;42.646;23.292;2022-09-09T15:36:55;93623.13;;;25.63;58.36
7586;BME280;12459;42.646;23.292;2022-09-09T15:51:57;93624.59;;;24.54;63.23
7586;BME280;12459;42.646;23.292;2022-09-09T16:07:02;93615.25;;;23.92;63.86
7586;BME280;12459;42.646;23.292;2022-09-09T16:22:04;93617.28;;;23.34;65.24
7586;BME280;12459;42.646;23.292;2022-09-09T16:37:05;93612.91;;;23.48;64.85
7586;BME280;12459;42.646;23.292;2022-09-09T16:52:07;93617.84;;;23.12;66.69
7586;BME280;12459;42.646;23.292;2022-09-09T17:07:08;93615.09;;;23.12;66.69
7586;BME280;12459;42.646;23.292;2022-09-09T17:22:11;93609.47;;;22.96;67.68
7586;BME280;12459;42.646;23.292;2022-09-09T17:37:17;93626.13;;;22.77;68.21
7586;BME280;12459;42.646;23.292;2022-09-09T17:52:19;93653.81;;;22.44;70.26
7586;BME280;12459;42.646;23.292;2022-09-09T18:07:20;93659.97;;;23.26;66.65
7586;BME280;12459;42.646;23.292;2022-09-09T18:22:22;93688.78;;;23.21;67.81
7586;BME280;12459;42.646;23.292;2022-09-09T18:37:23;93702.34;;;23.10;70.43
7586;BME280;12459;42.646;23.292;2022-09-09T18:52:26;93719.84;;;22.63;72.57
7586;BME280;12459;42.646;23.292;2022-09-09T19:07:27;93702.16;;;22.58;72.37
7586;BME280;12459;42.646;23.292;2022-09-09T19:22:29;93683.09;;;22.44;72.71
7586;BME280;12459;42.646;23.292;2022-09-09T19:37:31;93677.50;;;22.33;74.09
7586;BME280;12459;42.646;23.292;2022-09-09T19:52:32;93658.47;;;21.88;77.83
7586;BME280;12459;42.646;23.292;2022-09-09T20:07:34;93637.75;;;21.82;79.02
7586;BME280;12459;42.646;23.292;2022-09-09T20:22:35;93625.34;;;21.81;78.56
7586;BME280;12459;42.646;23.292;2022-09-09T20:37:38;93638.47;;;21.47;81.45
7586;BME280;12459;42.646;23.292;2022-09-09T20:52:40;93651.16;;;21.35;81.97
7586;BME280;12459;42.646;23.292;2022-09-09T21:07:42;93651.31;;;21.02;84.08
7586;BME280;12459;42.646;23.292;2022-09-09T21:22:44;93648.22;;;20.95;83.57
7586;BME280;12459;42.646;23.292;2022-09-09T21:37:46;93647.44;;;20.56;85.54
7586;BME280;12459;42.646;23.292;2022-09-09T21:52:47;93661.84;;;19.99;89.84
7586;BME280;12459;42.646;23.292;2022-09-09T22:16:07;93632.84;;;20.20;88.50
7586;BME280;12459;42.646;23.292;2022-09-09T22:31:09;93633.03;;;19.84;89.67
7586;BME280;12459;42.646;23.292;2022-09-09T22:46:11;93623.72;;;19.66;91.77
7586;BME280;12459;42.646;23.292;2022-09-09T23:01:14;93628.81;;;19.83;91.59
7586;BME280;12459;42.646;23.292;2022-09-09T23:16:18;93623.56;;;20.27;89.32
7586;BME280;12459;42.646;23.292;2022-09-09T23:31:21;93601.63;;;20.54;88.16
7586;BME280;12459;42.646;23.292;2022-09-09T23:46:24;93582.63;;;20.45;88.21
